< Typhoon 196903 1969 Season Typhoon 196905 >
Typhoon 196904 (TESS)
General InformationTrack Information on Google Maps || Disaster Info.ResourceGoogle EarthGE AnimationAtom FeedGeoJSON
Detalied Best Track (Time Zone = UTC)
Year Month Day Hour Lat. Long. Pressure (hPa) Wind (kt) Class Image Chart
1969 7 6 00 9.2 130.5 1008 0 2 -- Chart
1969 7 6 06 9.7 129.6 1008 0 2 -- Chart
1969 7 6 12 10.1 128.7 1008 0 2 -- Chart
1969 7 6 18 10.6 127.7 1008 0 2 -- Chart
1969 7 7 00 11.0 126.8 1008 0 2 -- Chart
1969 7 7 06 11.3 125.7 1006 0 2 -- Chart
1969 7 7 12 11.9 124.0 1006 0 2 -- Chart
1969 7 7 18 12.0 122.9 1006 0 2 -- Chart
1969 7 8 00 12.0 122.0 1006 0 2 -- Chart
1969 7 8 06 12.1 121.0 1006 0 2 -- Chart
1969 7 8 12 12.2 120.3 1006 0 2 -- Chart
1969 7 8 18 12.5 119.6 1004 0 2 -- Chart
1969 7 9 00 12.9 119.1 1000 0 2 -- Chart
1969 7 9 06 13.2 118.3 990 0 9 -- Chart
1969 7 9 12 13.6 117.1 980 0 9 -- Chart
1969 7 9 18 14.1 115.4 975 0 9 -- Chart
1969 7 10 00 14.4 113.7 970 0 9 -- Chart
1969 7 10 06 14.7 112.7 975 0 9 -- Chart
1969 7 10 12 15.3 111.5 975 0 9 -- Chart
1969 7 10 18 16.0 110.3 980 0 9 -- Chart
1969 7 11 00 16.5 109.1 990 0 9 -- Chart
1969 7 11 06 16.7 108.1 995 0 9 -- Chart
1969 7 11 12 17.0 107.0 998 0 2 -- Chart
1969 7 11 18 17.2 106.0 1002 0 2 -- Chart
1969 7 12 00 17.3 104.0 1004 0 2 -- Chart
Japan Meteorological Agency Best Track Data | Correction Date : 1989-06-01
< Typhoon 196903 1969 Season Typhoon 196905 >

Help